sensor_id;sensor_type;location;lat;lon;timestamp;P1;durP1;ratioP1;P2;durP2;ratioP2
982;SDS011;480;48.124;11.578;2022-09-28T00:00:39;0.80;;;0.60;;
982;SDS011;480;48.124;11.578;2022-09-28T00:03:11;0.87;;;0.80;;
982;SDS011;480;48.124;11.578;2022-09-28T00:05:38;2.10;;;0.60;;
982;SDS011;480;48.124;11.578;2022-09-28T00:08:05;0.50;;;0.50;;
982;SDS011;480;48.124;11.578;2022-09-28T00:10:33;0.67;;;0.60;;
982;SDS011;480;48.124;11.578;2022-09-28T00:13:00;1.53;;;0.50;;
982;SDS011;480;48.124;11.578;2022-09-28T00:15:28;0.67;;;0.43;;
982;SDS011;480;48.124;11.578;2022-09-28T00:17:54;0.90;;;0.90;;
982;SDS011;480;48.124;11.578;2022-09-28T00:20:21;1.00;;;0.67;;
982;SDS011;480;48.124;11.578;2022-09-28T00:22:48;1.00;;;0.60;;
982;SDS011;480;48.124;11.578;2022-09-28T00:25:15;0.60;;;0.60;;
982;SDS011;480;48.124;11.578;2022-09-28T00:27:49;2.10;;;1.00;;
982;SDS011;480;48.124;11.578;2022-09-28T00:30:16;0.60;;;0.60;;
982;SDS011;480;48.124;11.578;2022-09-28T00:32:43;0.40;;;0.37;;
982;SDS011;480;48.124;11.578;2022-09-28T00:35:10;0.70;;;0.70;;
982;SDS011;480;48.124;11.578;2022-09-28T00:37:37;0.93;;;0.57;;
982;SDS011;480;48.124;11.578;2022-09-28T00:40:05;0.40;;;0.40;;
982;SDS011;480;48.124;11.578;2022-09-28T00:42:32;0.50;;;0.50;;
982;SDS011;480;48.124;11.578;2022-09-28T00:45:01;0.60;;;0.40;;
982;SDS011;480;48.124;11.578;2022-09-28T00:47:36;0.60;;;0.60;;
982;SDS011;480;48.124;11.578;2022-09-28T00:50:13;0.50;;;0.40;;
982;SDS011;480;48.124;11.578;2022-09-28T00:52:46;0.40;;;0.30;;
982;SDS011;480;48.124;11.578;2022-09-28T00:55:18;0.53;;;0.53;;
982;SDS011;480;48.124;11.578;2022-09-28T00:57:51;0.80;;;0.80;;
982;SDS011;480;48.124;11.578;2022-09-28T01:00:23;0.47;;;0.47;;
982;SDS011;480;48.124;11.578;2022-09-28T01:02:51;0.50;;;0.50;;
982;SDS011;480;48.124;11.578;2022-09-28T01:05:18;0.50;;;0.50;;
982;SDS011;480;48.124;11.578;2022-09-28T01:07:48;1.27;;;1.17;;
982;SDS011;480;48.124;11.578;2022-09-28T01:10:16;1.50;;;0.70;;
982;SDS011;480;48.124;11.578;2022-09-28T01:12:43;0.53;;;0.50;;
982;SDS011;480;48.124;11.578;2022-09-28T01:15:10;0.70;;;0.60;;
982;SDS011;480;48.124;11.578;2022-09-28T01:17:45;0.73;;;0.70;;
982;SDS011;480;48.124;11.578;2022-09-28T01:23:36;1.90;;;0.60;;
982;SDS011;480;48.124;11.578;2022-09-28T01:32:22;0.60;;;0.60;;
982;SDS011;480;48.124;11.578;2022-09-28T01:34:54;0.50;;;0.50;;
982;SDS011;480;48.124;11.578;2022-09-28T01:37:25;0.53;;;0.47;;
982;SDS011;480;48.124;11.578;2022-09-28T01:39:59;0.50;;;0.50;;
982;SDS011;480;48.124;11.578;2022-09-28T01:42:31;0.83;;;0.63;;
982;SDS011;480;48.124;11.578;2022-09-28T01:45:01;0.83;;;0.60;;
982;SDS011;480;48.124;11.578;2022-09-28T01:47:32;0.40;;;0.40;;
982;SDS011;480;48.124;11.578;2022-09-28T01:50:04;0.60;;;0.60;;
982;SDS011;480;48.124;11.578;2022-09-28T01:52:35;0.50;;;0.50;;
982;SDS011;480;48.124;11.578;2022-09-28T01:55:08;1.67;;;0.60;;
982;SDS011;480;48.124;11.578;2022-09-28T01:57:41;0.40;;;0.30;;
982;SDS011;480;48.124;11.578;2022-09-28T02:00:11;0.30;;;0.30;;
982;SDS011;480;48.124;11.578;2022-09-28T02:02:41;1.63;;;0.70;;
982;SDS011;480;48.124;11.578;2022-09-28T02:05:14;0.53;;;0.53;;
982;SDS011;480;48.124;11.578;2022-09-28T02:07:45;0.40;;;0.40;;
982;SDS011;480;48.124;11.578;2022-09-28T02:10:16;0.50;;;0.30;;
982;SDS011;480;48.124;11.578;2022-09-28T02:12:49;0.80;;;0.60;;
982;SDS011;480;48.124;11.578;2022-09-28T02:15:22;0.53;;;0.50;;
982;SDS011;480;48.124;11.578;2022-09-28T02:17:51;0.67;;;0.67;;
982;SDS011;480;48.124;11.578;2022-09-28T02:20:19;0.60;;;0.60;;
982;SDS011;480;48.124;11.578;2022-09-28T02:22:48;0.83;;;0.70;;
982;SDS011;480;48.124;11.578;2022-09-28T02:25:20;0.67;;;0.67;;
982;SDS011;480;48.124;11.578;2022-09-28T02:27:56;0.70;;;0.70;;
982;SDS011;480;48.124;11.578;2022-09-28T02:30:25;1.80;;;0.50;;
982;SDS011;480;48.124;11.578;2022-09-28T02:32:53;1.80;;;0.73;;
982;SDS011;480;48.124;11.578;2022-09-28T02:35:22;0.57;;;0.57;;
982;SDS011;480;48.124;11.578;2022-09-28T02:37:49;0.83;;;0.63;;
982;SDS011;480;48.124;11.578;2022-09-28T02:40:16;2.00;;;0.60;;
982;SDS011;480;48.124;11.578;2022-09-28T02:42:49;1.17;;;0.50;;
982;SDS011;480;48.124;11.578;2022-09-28T02:45:24;0.70;;;0.70;;
982;SDS011;480;48.124;11.578;2022-09-28T02:48:06;0.70;;;0.70;;
982;SDS011;480;48.124;11.578;2022-09-28T02:50:42;0.83;;;0.70;;
982;SDS011;480;48.124;11.578;2022-09-28T02:56:17;1.10;;;1.10;;
982;SDS011;480;48.124;11.578;2022-09-28T02:59:06;0.83;;;0.77;;
982;SDS011;480;48.124;11.578;2022-09-28T03:01:43;1.20;;;0.60;;
982;SDS011;480;48.124;11.578;2022-09-28T03:04:19;0.47;;;0.47;;
982;SDS011;480;48.124;11.578;2022-09-28T03:06:54;0.57;;;0.57;;
982;SDS011;480;48.124;11.578;2022-09-28T03:09:27;1.47;;;0.70;;
982;SDS011;480;48.124;11.578;2022-09-28T03:11:59;1.13;;;0.73;;
982;SDS011;480;48.124;11.578;2022-09-28T03:14:31;0.60;;;0.60;;
982;SDS011;480;48.124;11.578;2022-09-28T03:17:00;0.87;;;0.63;;
982;SDS011;480;48.124;11.578;2022-09-28T03:19:27;2.63;;;0.80;;
982;SDS011;480;48.124;11.578;2022-09-28T03:21:58;0.60;;;0.60;;
982;SDS011;480;48.124;11.578;2022-09-28T03:24:25;0.60;;;0.60;;
982;SDS011;480;48.124;11.578;2022-09-28T03:26:52;0.67;;;0.60;;
982;SDS011;480;48.124;11.578;2022-09-28T03:29:20;0.60;;;0.60;;
982;SDS011;480;48.124;11.578;2022-09-28T03:31:47;0.63;;;0.63;;
982;SDS011;480;48.124;11.578;2022-09-28T03:34:15;0.70;;;0.70;;
982;SDS011;480;48.124;11.578;2022-09-28T03:36:42;0.50;;;0.50;;
982;SDS011;480;48.124;11.578;2022-09-28T03:39:09;0.80;;;0.70;;
982;SDS011;480;48.124;11.578;2022-09-28T03:41:36;0.50;;;0.50;;
982;SDS011;480;48.124;11.578;2022-09-28T03:44:03;0.63;;;0.63;;
982;SDS011;480;48.124;11.578;2022-09-28T03:46:30;0.57;;;0.57;;
982;SDS011;480;48.124;11.578;2022-09-28T03:48:57;1.27;;;0.93;;
982;SDS011;480;48.124;11.578;2022-09-28T03:51:26;1.33;;;0.70;;
982;SDS011;480;48.124;11.578;2022-09-28T03:53:53;0.80;;;0.63;;
982;SDS011;480;48.124;11.578;2022-09-28T03:56:20;0.40;;;0.40;;
982;SDS011;480;48.124;11.578;2022-09-28T03:58:47;0.83;;;0.83;;
982;SDS011;480;48.124;11.578;2022-09-28T04:01:14;0.60;;;0.60;;
982;SDS011;480;48.124;11.578;2022-09-28T04:03:41;0.50;;;0.50;;
982;SDS011;480;48.124;11.578;2022-09-28T04:06:09;0.60;;;0.60;;
982;SDS011;480;48.124;11.578;2022-09-28T04:08:38;0.80;;;0.80;;
982;SDS011;480;48.124;11.578;2022-09-28T04:11:05;3.10;;;0.93;;
982;SDS011;480;48.124;11.578;2022-09-28T04:13:32;0.63;;;0.63;;
982;SDS011;480;48.124;11.578;2022-09-28T04:15:59;1.13;;;0.60;;
982;SDS011;480;48.124;11.578;2022-09-28T04:18:27;0.80;;;0.80;;
982;SDS011;480;48.124;11.578;2022-09-28T04:20:59;1.47;;;0.50;;
982;SDS011;480;48.124;11.578;2022-09-28T04:23:30;0.80;;;0.80;;
982;SDS011;480;48.124;11.578;2022-09-28T04:26:00;0.80;;;0.77;;
982;SDS011;480;48.124;11.578;2022-09-28T04:28:27;0.70;;;0.70;;
982;SDS011;480;48.124;11.578;2022-09-28T04:31:09;0.87;;;0.80;;
982;SDS011;480;48.124;11.578;2022-09-28T04:33:37;1.47;;;0.50;;
982;SDS011;480;48.124;11.578;2022-09-28T04:36:04;1.10;;;0.80;;
982;SDS011;480;48.124;11.578;2022-09-28T04:38:31;0.80;;;0.80;;
982;SDS011;480;48.124;11.578;2022-09-28T04:40:59;2.43;;;0.97;;
982;SDS011;480;48.124;11.578;2022-09-28T04:43:26;0.60;;;0.60;;
982;SDS011;480;48.124;11.578;2022-09-28T04:45:56;0.50;;;0.50;;
982;SDS011;480;48.124;11.578;2022-09-28T04:48:25;0.60;;;0.60;;
982;SDS011;480;48.124;11.578;2022-09-28T04:50:52;1.10;;;1.00;;
982;SDS011;480;48.124;11.578;2022-09-28T04:53:19;0.90;;;0.83;;
982;SDS011;480;48.124;11.578;2022-09-28T04:55:53;1.37;;;0.43;;
982;SDS011;480;48.124;11.578;2022-09-28T04:58:24;0.90;;;0.90;;
982;SDS011;480;48.124;11.578;2022-09-28T05:00:51;1.37;;;1.10;;
982;SDS011;480;48.124;11.578;2022-09-28T05:03:19;0.50;;;0.50;;
982;SDS011;480;48.124;11.578;2022-09-28T05:05:46;0.60;;;0.60;;
982;SDS011;480;48.124;11.578;2022-09-28T05:08:14;0.67;;;0.67;;
982;SDS011;480;48.124;11.578;2022-09-28T05:10:41;1.40;;;0.90;;
982;SDS011;480;48.124;11.578;2022-09-28T05:13:08;0.93;;;0.70;;
982;SDS011;480;48.124;11.578;2022-09-28T05:15:38;1.27;;;0.97;;
982;SDS011;480;48.124;11.578;2022-09-28T05:18:06;1.83;;;0.90;;
982;SDS011;480;48.124;11.578;2022-09-28T05:20:38;0.83;;;0.80;;
982;SDS011;480;48.124;11.578;2022-09-28T05:23:08;2.97;;;1.20;;
982;SDS011;480;48.124;11.578;2022-09-28T05:25:36;0.83;;;0.63;;
982;SDS011;480;48.124;11.578;2022-09-28T05:28:03;1.57;;;1.07;;
982;SDS011;480;48.124;11.578;2022-09-28T05:30:31;0.93;;;0.83;;
982;SDS011;480;48.124;11.578;2022-09-28T05:32:59;0.63;;;0.60;;
982;SDS011;480;48.124;11.578;2022-09-28T05:35:26;0.80;;;0.80;;
982;SDS011;480;48.124;11.578;2022-09-28T05:37:53;1.47;;;0.70;;
982;SDS011;480;48.124;11.578;2022-09-28T05:40:21;1.47;;;1.13;;
982;SDS011;480;48.124;11.578;2022-09-28T05:42:48;1.17;;;1.00;;
982;SDS011;480;48.124;11.578;2022-09-28T05:45:15;0.83;;;0.83;;
982;SDS011;480;48.124;11.578;2022-09-28T05:47:42;0.70;;;0.60;;
982;SDS011;480;48.124;11.578;2022-09-28T05:50:12;0.70;;;0.50;;
982;SDS011;480;48.124;11.578;2022-09-28T05:52:40;0.93;;;0.60;;
982;SDS011;480;48.124;11.578;2022-09-28T05:55:08;0.60;;;0.60;;
982;SDS011;480;48.124;11.578;2022-09-28T05:57:36;2.40;;;0.90;;
982;SDS011;480;48.124;11.578;2022-09-28T06:00:03;0.80;;;0.60;;
982;SDS011;480;48.124;11.578;2022-09-28T06:02:32;1.33;;;0.80;;
982;SDS011;480;48.124;11.578;2022-09-28T06:04:59;0.97;;;0.53;;
982;SDS011;480;48.124;11.578;2022-09-28T06:07:28;1.00;;;0.73;;
982;SDS011;480;48.124;11.578;2022-09-28T06:09:55;1.00;;;0.90;;
982;SDS011;480;48.124;11.578;2022-09-28T06:12:22;1.40;;;1.40;;
982;SDS011;480;48.124;11.578;2022-09-28T06:14:49;0.50;;;0.50;;
982;SDS011;480;48.124;11.578;2022-09-28T06:17:16;0.70;;;0.70;;
982;SDS011;480;48.124;11.578;2022-09-28T06:19:43;0.83;;;0.83;;
982;SDS011;480;48.124;11.578;2022-09-28T06:22:11;1.20;;;1.10;;
982;SDS011;480;48.124;11.578;2022-09-28T06:24:39;1.13;;;1.03;;
982;SDS011;480;48.124;11.578;2022-09-28T06:27:07;0.90;;;0.90;;
982;SDS011;480;48.124;11.578;2022-09-28T06:29:34;0.70;;;0.60;;
982;SDS011;480;48.124;11.578;2022-09-28T06:32:01;0.87;;;0.60;;
982;SDS011;480;48.124;11.578;2022-09-28T06:34:28;1.00;;;0.90;;
982;SDS011;480;48.124;11.578;2022-09-28T06:36:55;0.60;;;0.60;;
982;SDS011;480;48.124;11.578;2022-09-28T06:39:22;0.80;;;0.70;;
982;SDS011;480;48.124;11.578;2022-09-28T06:41:50;1.17;;;0.70;;
982;SDS011;480;48.124;11.578;2022-09-28T06:44:17;0.93;;;0.60;;
982;SDS011;480;48.124;11.578;2022-09-28T06:46:44;1.57;;;0.70;;
982;SDS011;480;48.124;11.578;2022-09-28T06:49:11;0.67;;;0.67;;
982;SDS011;480;48.124;11.578;2022-09-28T06:51:38;1.30;;;0.80;;
982;SDS011;480;48.124;11.578;2022-09-28T06:54:06;0.60;;;0.60;;
982;SDS011;480;48.124;11.578;2022-09-28T06:56:33;0.70;;;0.70;;
982;SDS011;480;48.124;11.578;2022-09-28T06:59:02;0.77;;;0.77;;
982;SDS011;480;48.124;11.578;2022-09-28T07:01:30;0.60;;;0.60;;
982;SDS011;480;48.124;11.578;2022-09-28T07:03:58;0.80;;;0.80;;
982;SDS011;480;48.124;11.578;2022-09-28T07:06:25;1.37;;;0.80;;
982;SDS011;480;48.124;11.578;2022-09-28T07:08:55;0.93;;;0.80;;
982;SDS011;480;48.124;11.578;2022-09-28T07:11:24;0.87;;;0.87;;
982;SDS011;480;48.124;11.578;2022-09-28T07:13:53;0.80;;;0.70;;
982;SDS011;480;48.124;11.578;2022-09-28T07:16:21;1.63;;;1.10;;
982;SDS011;480;48.124;11.578;2022-09-28T07:18:48;1.67;;;0.90;;
982;SDS011;480;48.124;11.578;2022-09-28T07:21:15;1.70;;;0.60;;
982;SDS011;480;48.124;11.578;2022-09-28T07:23:42;1.10;;;0.70;;
982;SDS011;480;48.124;11.578;2022-09-28T07:26:09;0.50;;;0.50;;
982;SDS011;480;48.124;11.578;2022-09-28T07:28:36;0.80;;;0.60;;
982;SDS011;480;48.124;11.578;2022-09-28T07:31:04;0.70;;;0.70;;
982;SDS011;480;48.124;11.578;2022-09-28T07:33:33;0.83;;;0.77;;
982;SDS011;480;48.124;11.578;2022-09-28T07:36:00;1.23;;;1.13;;
982;SDS011;480;48.124;11.578;2022-09-28T07:38:30;1.20;;;1.10;;
982;SDS011;480;48.124;11.578;2022-09-28T07:40:57;0.50;;;0.50;;
982;SDS011;480;48.124;11.578;2022-09-28T07:43:36;1.57;;;0.97;;
982;SDS011;480;48.124;11.578;2022-09-28T07:46:04;0.80;;;0.80;;
982;SDS011;480;48.124;11.578;2022-09-28T07:48:37;1.00;;;0.90;;
982;SDS011;480;48.124;11.578;2022-09-28T07:51:05;0.80;;;0.80;;
982;SDS011;480;48.124;11.578;2022-09-28T07:53:33;1.17;;;0.80;;
982;SDS011;480;48.124;11.578;2022-09-28T07:56:02;0.80;;;0.70;;
982;SDS011;480;48.124;11.578;2022-09-28T07:58:33;0.43;;;0.43;;
982;SDS011;480;48.124;11.578;2022-09-28T08:01:03;0.60;;;0.60;;
982;SDS011;480;48.124;11.578;2022-09-28T08:03:32;0.60;;;0.60;;
982;SDS011;480;48.124;11.578;2022-09-28T08:06:02;0.90;;;0.90;;
982;SDS011;480;48.124;11.578;2022-09-28T08:08:33;0.90;;;0.90;;
982;SDS011;480;48.124;11.578;2022-09-28T08:11:01;1.33;;;0.73;;
982;SDS011;480;48.124;11.578;2022-09-28T08:13:28;1.37;;;0.87;;
982;SDS011;480;48.124;11.578;2022-09-28T08:15:58;1.00;;;0.63;;
982;SDS011;480;48.124;11.578;2022-09-28T08:18:26;0.80;;;0.70;;
982;SDS011;480;48.124;11.578;2022-09-28T08:20:53;0.67;;;0.67;;
982;SDS011;480;48.124;11.578;2022-09-28T08:23:40;0.90;;;0.90;;
982;SDS011;480;48.124;11.578;2022-09-28T08:26:07;0.60;;;0.50;;
982;SDS011;480;48.124;11.578;2022-09-28T08:28:35;0.83;;;0.83;;
982;SDS011;480;48.124;11.578;2022-09-28T08:31:03;0.90;;;0.90;;
982;SDS011;480;48.124;11.578;2022-09-28T08:33:31;0.70;;;0.70;;
982;SDS011;480;48.124;11.578;2022-09-28T08:36:00;0.93;;;0.90;;
982;SDS011;480;48.124;11.578;2022-09-28T08:38:28;0.90;;;0.90;;
982;SDS011;480;48.124;11.578;2022-09-28T08:41:08;1.00;;;0.90;;
982;SDS011;480;48.124;11.578;2022-09-28T08:43:48;0.90;;;0.90;;
982;SDS011;480;48.124;11.578;2022-09-28T08:46:22;0.87;;;0.80;;
982;SDS011;480;48.124;11.578;2022-09-28T08:48:55;0.57;;;0.57;;
982;SDS011;480;48.124;11.578;2022-09-28T08:51:29;0.60;;;0.60;;
982;SDS011;480;48.124;11.578;2022-09-28T08:54:01;1.13;;;0.93;;
982;SDS011;480;48.124;11.578;2022-09-28T08:56:36;1.33;;;0.90;;
982;SDS011;480;48.124;11.578;2022-09-28T08:59:08;1.00;;;0.73;;
982;SDS011;480;48.124;11.578;2022-09-28T09:01:42;1.27;;;0.80;;
982;SDS011;480;48.124;11.578;2022-09-28T09:04:13;1.60;;;0.97;;
982;SDS011;480;48.124;11.578;2022-09-28T09:06:51;0.47;;;0.47;;
982;SDS011;480;48.124;11.578;2022-09-28T09:09:42;0.93;;;0.93;;
982;SDS011;480;48.124;11.578;2022-09-28T09:12:20;0.80;;;0.53;;
982;SDS011;480;48.124;11.578;2022-09-28T09:15:03;0.73;;;0.73;;
982;SDS011;480;48.124;11.578;2022-09-28T09:17:45;0.70;;;0.70;;
982;SDS011;480;48.124;11.578;2022-09-28T09:20:24;1.50;;;0.77;;
982;SDS011;480;48.124;11.578;2022-09-28T09:23:02;2.50;;;1.13;;
982;SDS011;480;48.124;11.578;2022-09-28T09:25:41;0.53;;;0.50;;
982;SDS011;480;48.124;11.578;2022-09-28T09:31:06;1.90;;;0.90;;
982;SDS011;480;48.124;11.578;2022-09-28T09:33:46;0.87;;;0.87;;
982;SDS011;480;48.124;11.578;2022-09-28T09:36:39;0.80;;;0.60;;
982;SDS011;480;48.124;11.578;2022-09-28T09:39:22;0.83;;;0.57;;
982;SDS011;480;48.124;11.578;2022-09-28T09:42:04;2.63;;;1.13;;
982;SDS011;480;48.124;11.578;2022-09-28T09:47:38;0.93;;;0.90;;
982;SDS011;480;48.124;11.578;2022-09-28T09:50:10;1.47;;;0.80;;
982;SDS011;480;48.124;11.578;2022-09-28T09:52:45;0.70;;;0.60;;
982;SDS011;480;48.124;11.578;2022-09-28T09:55:21;1.27;;;0.80;;
982;SDS011;480;48.124;11.578;2022-09-28T09:57:50;0.83;;;0.73;;
982;SDS011;480;48.124;11.578;2022-09-28T10:00:24;0.83;;;0.67;;
982;SDS011;480;48.124;11.578;2022-09-28T10:02:52;1.60;;;1.50;;
982;SDS011;480;48.124;11.578;2022-09-28T10:05:21;3.17;;;1.20;;
982;SDS011;480;48.124;11.578;2022-09-28T10:07:52;1.20;;;1.10;;
982;SDS011;480;48.124;11.578;2022-09-28T10:10:25;5.70;;;1.20;;
982;SDS011;480;48.124;11.578;2022-09-28T10:12:55;1.47;;;0.97;;
982;SDS011;480;48.124;11.578;2022-09-28T10:15:23;1.10;;;1.00;;
982;SDS011;480;48.124;11.578;2022-09-28T10:17:53;1.00;;;0.90;;
982;SDS011;480;48.124;11.578;2022-09-28T10:20:22;1.27;;;1.00;;
982;SDS011;480;48.124;11.578;2022-09-28T10:22:49;0.60;;;0.60;;
982;SDS011;480;48.124;11.578;2022-09-28T10:25:17;1.20;;;1.10;;
982;SDS011;480;48.124;11.578;2022-09-28T10:27:45;1.00;;;0.90;;
982;SDS011;480;48.124;11.578;2022-09-28T10:30:17;3.60;;;0.80;;
982;SDS011;480;48.124;11.578;2022-09-28T10:32:47;7.97;;;2.50;;
982;SDS011;480;48.124;11.578;2022-09-28T10:35:21;2.23;;;1.60;;
982;SDS011;480;48.124;11.578;2022-09-28T10:37:52;1.33;;;1.00;;
982;SDS011;480;48.124;11.578;2022-09-28T10:43:16;1.07;;;0.97;;
982;SDS011;480;48.124;11.578;2022-09-28T10:45:47;2.13;;;0.93;;
982;SDS011;480;48.124;11.578;2022-09-28T10:48:24;1.20;;;1.07;;
982;SDS011;480;48.124;11.578;2022-09-28T10:51:01;2.10;;;1.13;;
982;SDS011;480;48.124;11.578;2022-09-28T10:53:30;0.70;;;0.70;;
982;SDS011;480;48.124;11.578;2022-09-28T10:56:01;2.00;;;0.93;;
982;SDS011;480;48.124;11.578;2022-09-28T10:58:33;1.63;;;0.83;;
982;SDS011;480;48.124;11.578;2022-09-28T11:01:07;0.50;;;0.50;;
982;SDS011;480;48.124;11.578;2022-09-28T11:03:38;1.63;;;1.00;;
982;SDS011;480;48.124;11.578;2022-09-28T11:06:23;0.70;;;0.70;;
982;SDS011;480;48.124;11.578;2022-09-28T11:08:52;0.93;;;0.80;;
982;SDS011;480;48.124;11.578;2022-09-28T11:11:21;1.50;;;0.80;;
982;SDS011;480;48.124;11.578;2022-09-28T11:13:49;1.13;;;1.03;;
982;SDS011;480;48.124;11.578;2022-09-28T11:16:19;1.03;;;0.80;;
982;SDS011;480;48.124;11.578;2022-09-28T11:18:48;0.83;;;0.80;;
982;SDS011;480;48.124;11.578;2022-09-28T11:21:16;0.90;;;0.80;;
982;SDS011;480;48.124;11.578;2022-09-28T11:23:59;1.07;;;1.07;;
982;SDS011;480;48.124;11.578;2022-09-28T11:26:36;0.93;;;0.93;;
982;SDS011;480;48.124;11.578;2022-09-28T11:29:17;0.90;;;0.90;;
982;SDS011;480;48.124;11.578;2022-09-28T11:31:58;0.60;;;0.60;;
982;SDS011;480;48.124;11.578;2022-09-28T11:34:29;1.90;;;1.10;;
982;SDS011;480;48.124;11.578;2022-09-28T11:39:55;1.00;;;0.70;;
982;SDS011;480;48.124;11.578;2022-09-28T11:42:32;1.80;;;1.53;;
982;SDS011;480;48.124;11.578;2022-09-28T11:45:16;1.13;;;1.03;;
982;SDS011;480;48.124;11.578;2022-09-28T11:47:56;1.20;;;1.10;;
982;SDS011;480;48.124;11.578;2022-09-28T11:50:27;1.00;;;1.00;;
982;SDS011;480;48.124;11.578;2022-09-28T11:53:02;1.30;;;1.10;;
982;SDS011;480;48.124;11.578;2022-09-28T11:55:37;1.13;;;1.03;;
982;SDS011;480;48.124;11.578;2022-09-28T11:58:10;4.30;;;1.30;;
982;SDS011;480;48.124;11.578;2022-09-28T12:00:44;1.03;;;0.90;;
982;SDS011;480;48.124;11.578;2022-09-28T12:03:15;1.30;;;1.27;;
982;SDS011;480;48.124;11.578;2022-09-28T12:05:46;0.70;;;0.70;;
982;SDS011;480;48.124;11.578;2022-09-28T12:08:18;1.40;;;1.30;;
982;SDS011;480;48.124;11.578;2022-09-28T12:10:54;1.10;;;1.00;;
982;SDS011;480;48.124;11.578;2022-09-28T12:13:25;1.53;;;1.47;;
982;SDS011;480;48.124;11.578;2022-09-28T12:15:54;1.50;;;0.90;;
982;SDS011;480;48.124;11.578;2022-09-28T12:18:26;1.40;;;1.27;;
982;SDS011;480;48.124;11.578;2022-09-28T12:21:06;1.13;;;1.13;;
982;SDS011;480;48.124;11.578;2022-09-28T12:23:41;1.10;;;1.10;;
982;SDS011;480;48.124;11.578;2022-09-28T12:26:14;1.60;;;1.33;;
982;SDS011;480;48.124;11.578;2022-09-28T12:28:52;2.20;;;1.67;;
982;SDS011;480;48.124;11.578;2022-09-28T12:31:24;1.33;;;1.23;;
982;SDS011;480;48.124;11.578;2022-09-28T12:33:56;1.63;;;0.97;;
982;SDS011;480;48.124;11.578;2022-09-28T12:36:29;1.40;;;1.30;;
982;SDS011;480;48.124;11.578;2022-09-28T12:39:14;1.20;;;1.10;;
982;SDS011;480;48.124;11.578;2022-09-28T12:41:59;1.60;;;1.50;;
982;SDS011;480;48.124;11.578;2022-09-28T12:44:46;1.40;;;1.30;;
982;SDS011;480;48.124;11.578;2022-09-28T12:50:29;1.63;;;1.33;;
982;SDS011;480;48.124;11.578;2022-09-28T12:53:06;2.07;;;1.23;;
982;SDS011;480;48.124;11.578;2022-09-28T12:55:52;1.00;;;1.00;;
982;SDS011;480;48.124;11.578;2022-09-28T12:58:33;1.50;;;1.40;;
982;SDS011;480;48.124;11.578;2022-09-28T13:01:13;1.30;;;1.20;;
982;SDS011;480;48.124;11.578;2022-09-28T13:03:58;1.00;;;1.00;;
982;SDS011;480;48.124;11.578;2022-09-28T13:06:46;1.50;;;1.40;;
982;SDS011;480;48.124;11.578;2022-09-28T13:09:21;1.60;;;1.50;;
982;SDS011;480;48.124;11.578;2022-09-28T13:12:02;2.47;;;1.20;;
982;SDS011;480;48.124;11.578;2022-09-28T13:14:43;1.43;;;1.33;;
982;SDS011;480;48.124;11.578;2022-09-28T13:17:27;2.17;;;1.30;;
982;SDS011;480;48.124;11.578;2022-09-28T13:20:10;1.57;;;1.47;;
982;SDS011;480;48.124;11.578;2022-09-28T13:22:51;2.10;;;1.90;;
982;SDS011;480;48.124;11.578;2022-09-28T13:25:24;1.43;;;1.37;;
982;SDS011;480;48.124;11.578;2022-09-28T13:27:57;1.50;;;1.20;;
982;SDS011;480;48.124;11.578;2022-09-28T13:30:28;2.43;;;1.83;;
982;SDS011;480;48.124;11.578;2022-09-28T13:32:56;1.60;;;1.50;;
982;SDS011;480;48.124;11.578;2022-09-28T13:35:25;1.50;;;1.40;;
982;SDS011;480;48.124;11.578;2022-09-28T13:41:08;1.90;;;1.17;;
982;SDS011;480;48.124;11.578;2022-09-28T13:43:43;2.40;;;1.30;;
982;SDS011;480;48.124;11.578;2022-09-28T13:46:22;1.50;;;1.40;;
982;SDS011;480;48.124;11.578;2022-09-28T13:48:58;1.37;;;1.23;;
982;SDS011;480;48.124;11.578;2022-09-28T13:51:39;1.80;;;1.70;;
982;SDS011;480;48.124;11.578;2022-09-28T13:54:22;2.50;;;1.97;;
982;SDS011;480;48.124;11.578;2022-09-28T13:56:57;1.50;;;1.30;;
982;SDS011;480;48.124;11.578;2022-09-28T13:59:36;2.17;;;1.57;;
982;SDS011;480;48.124;11.578;2022-09-28T14:02:28;2.63;;;1.93;;
982;SDS011;480;48.124;11.578;2022-09-28T14:04:59;1.50;;;1.30;;
982;SDS011;480;48.124;11.578;2022-09-28T14:10:44;1.97;;;1.70;;
982;SDS011;480;48.124;11.578;2022-09-28T14:16:18;1.90;;;1.57;;
982;SDS011;480;48.124;11.578;2022-09-28T14:18:48;1.90;;;1.50;;
982;SDS011;480;48.124;11.578;2022-09-28T14:21:38;2.43;;;1.40;;
982;SDS011;480;48.124;11.578;2022-09-28T14:24:30;1.33;;;1.27;;
982;SDS011;480;48.124;11.578;2022-09-28T14:27:25;1.60;;;1.50;;
982;SDS011;480;48.124;11.578;2022-09-28T14:30:21;1.50;;;1.40;;
982;SDS011;480;48.124;11.578;2022-09-28T14:32:51;2.13;;;1.97;;
982;SDS011;480;48.124;11.578;2022-09-28T14:35:30;1.93;;;1.57;;
982;SDS011;480;48.124;11.578;2022-09-28T14:38:04;1.83;;;1.73;;
982;SDS011;480;48.124;11.578;2022-09-28T14:41:00;2.83;;;1.60;;
982;SDS011;480;48.124;11.578;2022-09-28T14:43:57;2.83;;;2.00;;
982;SDS011;480;48.124;11.578;2022-09-28T14:46:33;3.00;;;1.50;;
982;SDS011;480;48.124;11.578;2022-09-28T14:52:13;1.70;;;1.60;;
982;SDS011;480;48.124;11.578;2022-09-28T14:54:48;1.50;;;1.40;;
982;SDS011;480;48.124;11.578;2022-09-28T14:57:19;1.50;;;1.40;;
982;SDS011;480;48.124;11.578;2022-09-28T14:59:50;1.83;;;1.53;;
982;SDS011;480;48.124;11.578;2022-09-28T15:02:21;1.70;;;1.60;;
982;SDS011;480;48.124;11.578;2022-09-28T15:04:51;1.97;;;1.77;;
982;SDS011;480;48.124;11.578;2022-09-28T15:07:25;2.00;;;1.90;;
982;SDS011;480;48.124;11.578;2022-09-28T15:09:54;1.63;;;1.53;;
982;SDS011;480;48.124;11.578;2022-09-28T15:12:24;1.73;;;1.60;;
982;SDS011;480;48.124;11.578;2022-09-28T15:14:53;1.73;;;1.63;;
982;SDS011;480;48.124;11.578;2022-09-28T15:17:23;1.70;;;1.57;;
982;SDS011;480;48.124;11.578;2022-09-28T15:19:56;1.77;;;1.67;;
982;SDS011;480;48.124;11.578;2022-09-28T15:22:47;2.20;;;2.10;;
982;SDS011;480;48.124;11.578;2022-09-28T15:25:16;2.57;;;1.80;;
982;SDS011;480;48.124;11.578;2022-09-28T15:27:45;2.10;;;2.00;;
982;SDS011;480;48.124;11.578;2022-09-28T15:33:03;2.40;;;2.20;;
982;SDS011;480;48.124;11.578;2022-09-28T15:35:47;2.40;;;2.07;;
982;SDS011;480;48.124;11.578;2022-09-28T15:38:23;2.07;;;1.97;;
982;SDS011;480;48.124;11.578;2022-09-28T15:40:50;4.33;;;2.27;;
982;SDS011;480;48.124;11.578;2022-09-28T15:43:22;2.33;;;2.10;;
982;SDS011;480;48.124;11.578;2022-09-28T15:45:55;2.57;;;2.13;;
982;SDS011;480;48.124;11.578;2022-09-28T15:48:27;2.17;;;1.93;;
982;SDS011;480;48.124;11.578;2022-09-28T15:50:57;2.43;;;1.90;;
982;SDS011;480;48.124;11.578;2022-09-28T15:53:36;1.70;;;1.60;;
982;SDS011;480;48.124;11.578;2022-09-28T15:56:08;1.60;;;1.50;;
982;SDS011;480;48.124;11.578;2022-09-28T15:58:36;1.83;;;1.67;;
982;SDS011;480;48.124;11.578;2022-09-28T16:01:18;1.70;;;1.60;;
982;SDS011;480;48.124;11.578;2022-09-28T16:03:53;2.07;;;1.70;;
982;SDS011;480;48.124;11.578;2022-09-28T16:06:20;3.20;;;2.27;;
982;SDS011;480;48.124;11.578;2022-09-28T16:08:49;1.60;;;1.50;;
982;SDS011;480;48.124;11.578;2022-09-28T16:11:18;2.03;;;1.93;;
982;SDS011;480;48.124;11.578;2022-09-28T16:13:53;1.53;;;1.43;;
982;SDS011;480;48.124;11.578;2022-09-28T16:16:23;1.13;;;1.10;;
982;SDS011;480;48.124;11.578;2022-09-28T16:18:55;6.30;;;2.40;;
982;SDS011;480;48.124;11.578;2022-09-28T16:24:21;5.50;;;2.10;;
982;SDS011;480;48.124;11.578;2022-09-28T16:26:55;1.60;;;1.50;;
982;SDS011;480;48.124;11.578;2022-09-28T16:29:26;1.80;;;1.37;;
982;SDS011;480;48.124;11.578;2022-09-28T16:35:14;1.90;;;1.60;;
982;SDS011;480;48.124;11.578;2022-09-28T16:37:44;1.53;;;1.43;;
982;SDS011;480;48.124;11.578;2022-09-28T16:40:14;2.00;;;1.90;;
982;SDS011;480;48.124;11.578;2022-09-28T16:42:42;2.83;;;1.63;;
982;SDS011;480;48.124;11.578;2022-09-28T16:45:14;2.00;;;1.83;;
982;SDS011;480;48.124;11.578;2022-09-28T16:47:44;4.07;;;2.30;;